createdAt,value
2018-01-29T00:00:58.898Z,22.70
2018-01-29T00:03:26.459Z,22.70
2018-01-29T00:05:54.111Z,22.70
2018-01-29T00:08:21.694Z,22.70
2018-01-29T00:10:49.260Z,22.70
2018-01-29T00:13:16.874Z,22.70
2018-01-29T00:15:45.208Z,22.60
2018-01-29T00:18:13.147Z,22.60
2018-01-29T00:20:40.736Z,22.60
2018-01-29T00:23:08.333Z,22.60
2018-01-29T00:25:36.684Z,22.60
2018-01-29T00:28:05.282Z,22.60
2018-01-29T00:30:32.840Z,22.60
2018-01-29T00:33:00.556Z,22.60
2018-01-29T00:35:28.205Z,22.60
2018-01-29T00:37:55.784Z,22.50
2018-01-29T00:40:23.384Z,22.50
2018-01-29T00:42:50.940Z,22.60
2018-01-29T00:45:18.518Z,22.50
2018-01-29T00:47:47.093Z,22.50
2018-01-29T00:50:15.424Z,22.50
2018-01-29T00:52:42.974Z,22.50
2018-01-29T00:55:10.586Z,22.50
2018-01-29T00:57:38.288Z,22.50
2018-01-29T01:00:05.926Z,22.50
2018-01-29T01:02:33.534Z,22.50
2018-01-29T01:05:01.102Z,22.50
2018-01-29T01:07:28.628Z,22.50
2018-01-29T01:09:56.206Z,22.50
2018-01-29T01:12:23.766Z,22.50
2018-01-29T01:14:51.376Z,22.40
2018-01-29T01:17:19.942Z,22.50
2018-01-29T01:19:47.502Z,22.40
2018-01-29T01:22:16.880Z,22.40
2018-01-29T01:24:44.686Z,22.40
2018-01-29T01:27:13.056Z,22.50
2018-01-29T01:29:40.646Z,22.40
2018-01-29T01:32:08.209Z,22.50
2018-01-29T01:34:35.983Z,22.50
2018-01-29T01:37:03.556Z,22.40
2018-01-29T01:39:31.142Z,22.50
2018-01-29T01:41:58.712Z,22.40
2018-01-29T01:44:26.276Z,22.40
2018-01-29T01:46:53.864Z,22.40
2018-01-29T01:49:36.307Z,22.40
2018-01-29T01:52:03.913Z,22.40
2018-01-29T01:54:32.229Z,22.40
2018-01-29T01:56:59.766Z,22.40
2018-01-29T01:59:27.390Z,22.40
2018-01-29T02:01:54.995Z,22.40
2018-01-29T02:04:22.572Z,22.40
2018-01-29T02:06:50.208Z,22.40
2018-01-29T02:09:18.540Z,22.30
2018-01-29T02:11:46.144Z,22.30
2018-01-29T02:14:14.471Z,22.40
2018-01-29T02:16:42.045Z,22.40
2018-01-29T02:19:09.657Z,22.40
2018-01-29T02:21:37.227Z,22.40
2018-01-29T02:24:04.797Z,22.40
2018-01-29T02:26:32.449Z,22.40
2018-01-29T02:29:00.047Z,22.40
2018-01-29T02:31:27.626Z,22.40
2018-01-29T02:33:56.269Z,22.40
2018-01-29T02:36:24.037Z,22.40
2018-01-29T02:38:51.609Z,22.40
2018-01-29T02:41:19.498Z,22.40
2018-01-29T02:43:47.053Z,22.40
2018-01-29T02:46:14.615Z,22.40
2018-01-29T02:48:42.290Z,22.40
2018-01-29T02:51:10.617Z,22.40
2018-01-29T02:53:38.175Z,22.40
2018-01-29T02:56:05.787Z,22.40
2018-01-29T02:58:34.125Z,22.40
2018-01-29T03:01:01.681Z,22.40
2018-01-29T03:03:29.281Z,22.40
2018-01-29T03:05:57.587Z,22.40
2018-01-29T03:08:25.359Z,22.30
2018-01-29T03:10:52.965Z,22.40
2018-01-29T03:13:20.518Z,22.40
2018-01-29T03:15:48.098Z,22.40
2018-01-29T03:18:15.799Z,22.40
2018-01-29T03:20:43.563Z,22.40
2018-01-29T03:23:11.107Z,22.40
2018-01-29T03:25:38.714Z,22.40
2018-01-29T03:28:06.265Z,22.40
2018-01-29T03:30:33.893Z,22.40
2018-01-29T03:33:01.461Z,22.30
2018-01-29T03:35:29.031Z,22.30
2018-01-29T03:37:56.634Z,22.30
2018-01-29T03:40:24.182Z,22.30
2018-01-29T03:42:51.737Z,22.30
2018-01-29T03:45:19.324Z,22.30
2018-01-29T03:47:47.642Z,22.30
2018-01-29T03:50:15.187Z,22.30
2018-01-29T03:52:42.825Z,22.30
2018-01-29T03:55:11.157Z,22.30
2018-01-29T03:57:38.759Z,22.30
2018-01-29T04:00:07.135Z,22.30
2018-01-29T04:02:34.685Z,22.30
2018-01-29T04:05:02.230Z,22.30
2018-01-29T04:07:29.911Z,22.30
2018-01-29T04:09:57.447Z,22.30
2018-01-29T04:12:25.037Z,22.30
2018-01-29T04:14:52.621Z,22.30
2018-01-29T04:17:20.225Z,22.30
2018-01-29T04:19:47.959Z,22.30
2018-01-29T04:22:15.545Z,22.30
2018-01-29T04:24:43.074Z,22.30
2018-01-29T04:27:10.657Z,22.30
2018-01-29T04:29:38.365Z,22.30
2018-01-29T04:32:06.695Z,22.30
2018-01-29T04:34:34.241Z,22.30
2018-01-29T04:37:02.075Z,22.40
2018-01-29T04:39:30.399Z,22.40
2018-01-29T04:41:57.967Z,22.30
2018-01-29T04:44:35.472Z,22.40
2018-01-29T04:47:07.329Z,22.40
2018-01-29T04:49:35.001Z,22.30
2018-01-29T04:52:03.334Z,22.30
2018-01-29T04:54:30.874Z,22.30
2018-01-29T04:56:58.510Z,22.30
2018-01-29T04:59:26.049Z,22.30
2018-01-29T05:01:53.613Z,22.30
2018-01-29T05:04:21.225Z,22.30
2018-01-29T05:06:48.785Z,22.30
2018-01-29T05:09:16.338Z,22.30
2018-01-29T05:11:44.326Z,22.30
2018-01-29T05:14:11.871Z,22.30
2018-01-29T05:16:39.448Z,22.30
2018-01-29T05:19:07.043Z,22.30
2018-01-29T05:21:34.659Z,22.30
2018-01-29T05:24:02.206Z,22.30
2018-01-29T05:26:29.942Z,22.20
2018-01-29T05:28:58.345Z,22.30
2018-01-29T05:31:26.020Z,22.30
2018-01-29T05:33:53.611Z,22.30
2018-01-29T05:36:26.771Z,22.30
2018-01-29T05:38:56.379Z,22.30
2018-01-29T05:41:24.065Z,22.30
2018-01-29T05:43:51.612Z,22.30
2018-01-29T05:46:19.204Z,22.30
2018-01-29T05:48:46.941Z,22.30
2018-01-29T05:51:14.514Z,22.30
2018-01-29T05:53:42.107Z,22.30
2018-01-29T05:56:10.565Z,22.30
2018-01-29T05:58:38.122Z,22.30
2018-01-29T06:01:05.726Z,22.30
2018-01-29T06:03:33.282Z,22.30
2018-01-29T06:06:00.892Z,22.30
2018-01-29T06:08:28.489Z,22.30
2018-01-29T06:10:56.060Z,22.30
2018-01-29T06:13:23.969Z,22.30
2018-01-29T06:15:51.775Z,22.30
2018-01-29T06:18:19.347Z,22.20
2018-01-29T06:20:47.760Z,22.30
2018-01-29T06:23:15.410Z,22.30
2018-01-29T06:25:43.094Z,22.30
2018-01-29T06:28:10.652Z,22.30
2018-01-29T06:30:38.233Z,22.30
2018-01-29T06:33:05.918Z,22.30
2018-01-29T06:35:33.506Z,22.30
2018-01-29T06:38:01.056Z,22.30
2018-01-29T06:40:29.466Z,22.30
2018-01-29T06:42:57.134Z,22.20
2018-01-29T06:45:24.772Z,22.30
2018-01-29T06:47:52.512Z,22.30
2018-01-29T06:50:20.164Z,22.30
2018-01-29T06:52:47.722Z,22.20
2018-01-29T06:55:15.446Z,22.20
2018-01-29T06:57:43.034Z,22.30
2018-01-29T07:00:10.622Z,22.30
2018-01-29T07:02:39.020Z,22.30
2018-01-29T07:05:06.616Z,22.30
2018-01-29T07:07:34.204Z,22.30
2018-01-29T07:10:03.333Z,22.30
2018-01-29T07:12:30.888Z,22.30
2018-01-29T07:14:59.216Z,22.40
2018-01-29T07:17:27.058Z,22.40
2018-01-29T07:19:54.604Z,22.50
2018-01-29T07:22:22.192Z,22.50
2018-01-29T07:24:49.792Z,22.60
2018-01-29T07:27:18.134Z,22.70
2018-01-29T07:29:45.660Z,22.60
2018-01-29T07:32:13.238Z,22.60
2018-01-29T07:34:40.940Z,22.60
2018-01-29T07:37:08.490Z,22.50
2018-01-29T07:39:36.064Z,22.50
2018-01-29T07:42:03.706Z,22.50
2018-01-29T07:44:31.245Z,22.50
2018-01-29T07:46:58.813Z,22.50
2018-01-29T07:49:26.426Z,22.40
2018-01-29T07:51:53.987Z,22.40
2018-01-29T07:54:21.609Z,22.40
2018-01-29T07:56:49.191Z,22.40
2018-01-29T07:59:17.508Z,22.30
2018-01-29T08:01:45.113Z,22.30
2018-01-29T08:04:12.785Z,22.30
2018-01-29T08:06:40.347Z,22.30
2018-01-29T08:09:07.973Z,22.30
2018-01-29T08:11:35.563Z,22.30
2018-01-29T08:14:03.275Z,22.40
2018-01-29T08:16:30.998Z,22.40
2018-01-29T08:18:58.595Z,22.40
2018-01-29T08:21:26.149Z,22.50
2018-01-29T08:23:53.775Z,22.40
2018-01-29T08:26:21.523Z,22.50
2018-01-29T08:28:49.192Z,22.50
2018-01-29T08:31:17.723Z,22.50
2018-01-29T08:33:45.299Z,22.50
2018-01-29T08:36:12.871Z,22.50
2018-01-29T08:38:40.614Z,22.50
2018-01-29T08:41:08.189Z,22.50
2018-01-29T08:43:35.753Z,22.50
2018-01-29T08:46:03.487Z,22.50
2018-01-29T08:48:31.036Z,22.50
2018-01-29T08:50:58.597Z,22.50
2018-01-29T08:53:26.207Z,22.40
2018-01-29T08:55:53.809Z,22.50
2018-01-29T08:58:22.173Z,22.50
2018-01-29T09:00:50.560Z,22.50
2018-01-29T09:03:19.637Z,22.60
2018-01-29T09:05:47.343Z,22.60
2018-01-29T09:08:15.755Z,22.80
2018-01-29T09:10:43.300Z,22.70
2018-01-29T09:13:10.869Z,22.80
2018-01-29T09:15:38.495Z,22.80
2018-01-29T09:18:06.058Z,22.80
2018-01-29T09:20:33.626Z,22.80
2018-01-29T09:23:01.384Z,22.80
2018-01-29T09:25:28.931Z,22.80
2018-01-29T09:27:56.502Z,22.70
2018-01-29T09:30:24.373Z,22.70
2018-01-29T09:32:51.914Z,22.70
2018-01-29T09:35:20.256Z,22.70
2018-01-29T09:37:47.834Z,22.70
2018-01-29T09:40:16.152Z,22.60
2018-01-29T09:42:43.749Z,22.70
2018-01-29T09:45:11.345Z,22.70
2018-01-29T09:47:39.750Z,22.70
2018-01-29T09:50:07.310Z,22.70
2018-01-29T09:52:34.914Z,22.70
2018-01-29T09:55:02.462Z,22.80
2018-01-29T09:57:30.991Z,22.90
2018-01-29T09:59:58.582Z,22.90
2018-01-29T10:02:26.142Z,22.90
2018-01-29T10:04:53.767Z,22.90
2018-01-29T10:07:22.129Z,23.00
2018-01-29T10:09:50.435Z,23.00
2018-01-29T10:12:17.999Z,23.00
2018-01-29T10:14:45.729Z,23.00
2018-01-29T10:17:14.061Z,23.00
2018-01-29T10:19:41.604Z,23.00
2018-01-29T10:22:09.265Z,23.00
2018-01-29T10:24:37.670Z,23.10
2018-01-29T10:27:05.390Z,23.00
2018-01-29T10:29:33.774Z,23.00
2018-01-29T10:32:01.384Z,23.00
2018-01-29T10:34:28.922Z,23.10
2018-01-29T10:36:56.531Z,23.10
2018-01-29T10:39:24.154Z,23.10
2018-01-29T10:41:51.732Z,23.10
2018-01-29T10:44:19.332Z,23.10
2018-01-29T10:46:46.953Z,23.20
2018-01-29T10:49:14.532Z,23.20
2018-01-29T10:51:42.864Z,23.20
2018-01-29T10:54:10.669Z,23.20
2018-01-29T10:56:38.199Z,23.20
2018-01-29T10:59:05.936Z,23.30
2018-01-29T11:01:33.522Z,23.20
2018-01-29T11:04:01.148Z,23.20
2018-01-29T11:06:28.713Z,23.30
2018-01-29T11:08:56.258Z,23.30
2018-01-29T11:11:23.855Z,23.30
2018-01-29T11:13:51.395Z,23.30
2018-01-29T11:16:18.982Z,23.30
2018-01-29T11:18:46.670Z,23.30
2018-01-29T11:21:14.274Z,23.20
2018-01-29T11:23:41.912Z,23.20
2018-01-29T11:26:10.237Z,23.20
2018-01-29T11:28:37.852Z,23.20
2018-01-29T11:31:05.618Z,23.20
2018-01-29T11:33:33.180Z,23.20
2018-01-29T11:36:00.741Z,23.20
2018-01-29T11:38:28.478Z,23.20
2018-01-29T11:40:56.996Z,23.10
2018-01-29T11:43:24.620Z,23.10
2018-01-29T11:45:52.198Z,23.10
2018-01-29T11:48:20.614Z,23.20
2018-01-29T11:50:48.410Z,23.20
2018-01-29T11:53:15.960Z,23.40
2018-01-29T11:55:43.532Z,23.40
2018-01-29T11:58:11.150Z,23.40
2018-01-29T12:00:38.739Z,23.50
2018-01-29T12:03:07.312Z,23.50
2018-01-29T12:05:34.990Z,23.40
2018-01-29T12:08:02.625Z,23.30
2018-01-29T12:10:30.396Z,23.30
2018-01-29T12:12:58.037Z,23.30
2018-01-29T12:15:25.598Z,23.20
2018-01-29T12:17:53.172Z,23.20
2018-01-29T12:20:20.822Z,23.10
2018-01-29T12:22:48.484Z,23.10
2018-01-29T12:25:16.170Z,23.10
2018-01-29T12:27:43.780Z,23.00
2018-01-29T12:30:12.104Z,22.90
2018-01-29T12:32:39.650Z,22.90
2018-01-29T12:35:07.267Z,23.00
2018-01-29T12:37:34.864Z,22.90
2018-01-29T12:40:02.442Z,22.80
2018-01-29T12:42:31.434Z,22.80
2018-01-29T12:44:59.076Z,22.80
2018-01-29T12:47:26.738Z,22.80
2018-01-29T12:49:54.504Z,22.80
2018-01-29T12:52:22.232Z,22.80
2018-01-29T12:54:50.576Z,22.80
2018-01-29T12:57:18.152Z,22.80
2018-01-29T12:59:46.746Z,22.80
2018-01-29T13:02:15.131Z,22.70
2018-01-29T13:04:42.798Z,22.70
2018-01-29T13:07:11.244Z,22.70
2018-01-29T13:09:39.796Z,22.70
2018-01-29T13:12:07.390Z,22.70
2018-01-29T13:14:34.948Z,22.70
2018-01-29T13:17:02.527Z,22.70
2018-01-29T13:19:30.090Z,22.70
2018-01-29T13:21:58.440Z,22.70
2018-01-29T13:24:25.987Z,22.60
2018-01-29T13:26:53.548Z,22.60
2018-01-29T13:29:21.174Z,22.60
2018-01-29T13:31:48.720Z,22.60
2018-01-29T13:34:17.029Z,22.60
2018-01-29T13:36:44.629Z,22.60
2018-01-29T13:39:12.955Z,22.60
2018-01-29T13:41:40.508Z,22.50
2018-01-29T13:44:08.268Z,22.60
2018-01-29T13:46:35.842Z,22.60
2018-01-29T13:49:03.404Z,22.60
2018-01-29T13:51:30.999Z,22.60
2018-01-29T13:53:58.552Z,22.50
2018-01-29T13:56:26.098Z,22.60
2018-01-29T13:58:53.699Z,22.60
2018-01-29T14:01:22.043Z,22.60
2018-01-29T14:03:49.604Z,22.50
2018-01-29T14:06:17.192Z,22.60
2018-01-29T14:08:45.666Z,22.60
2018-01-29T14:11:13.218Z,22.50
2018-01-29T14:13:40.841Z,22.60
2018-01-29T14:16:08.404Z,22.60
2018-01-29T14:18:36.041Z,22.60
2018-01-29T14:21:04.592Z,22.50
2018-01-29T14:23:32.940Z,22.30
2018-01-29T14:26:00.561Z,22.50
2018-01-29T14:28:28.141Z,22.50
2018-01-29T14:30:55.732Z,22.50
2018-01-29T14:33:23.587Z,22.50
2018-01-29T14:35:51.165Z,22.50
2018-01-29T14:38:18.730Z,22.50
2018-01-29T14:40:46.338Z,22.50
2018-01-29T14:43:13.899Z,22.50
2018-01-29T14:45:41.441Z,22.50
2018-01-29T14:48:09.815Z,22.40
2018-01-29T14:50:38.266Z,22.50
2018-01-29T14:53:05.931Z,22.40
2018-01-29T14:55:33.519Z,22.40
2018-01-29T14:58:01.819Z,22.40
2018-01-29T15:00:29.791Z,22.40
2018-01-29T15:02:57.359Z,22.40
2018-01-29T15:05:24.997Z,22.40
2018-01-29T15:07:52.559Z,22.40
2018-01-29T15:10:20.121Z,22.40
2018-01-29T15:12:47.708Z,22.40
2018-01-29T15:15:15.505Z,22.40
2018-01-29T15:17:43.321Z,22.40
2018-01-29T15:20:10.873Z,22.40
2018-01-29T15:22:38.435Z,22.40
2018-01-29T15:25:06.052Z,22.40
2018-01-29T15:27:33.606Z,22.40
2018-01-29T15:30:01.225Z,22.40
2018-01-29T15:32:29.043Z,22.40
2018-01-29T15:34:56.599Z,22.40
2018-01-29T15:37:24.413Z,22.40
2018-01-29T15:39:52.023Z,22.40
2018-01-29T15:42:19.641Z,22.40
2018-01-29T15:44:47.195Z,22.40
2018-01-29T15:47:14.837Z,22.40
2018-01-29T15:49:42.399Z,22.30
2018-01-29T15:52:10.197Z,22.40
2018-01-29T15:54:37.799Z,22.40
2018-01-29T15:57:06.131Z,22.30
2018-01-29T15:59:33.693Z,22.30
2018-01-29T16:02:01.314Z,22.30
2018-01-29T16:04:29.643Z,22.30
2018-01-29T16:06:57.307Z,22.40
2018-01-29T16:09:24.900Z,22.30
2018-01-29T16:11:52.438Z,22.30
2018-01-29T16:14:20.105Z,22.30
2018-01-29T16:16:47.757Z,22.30
2018-01-29T16:19:15.316Z,22.40
2018-01-29T16:21:42.911Z,22.40
2018-01-29T16:24:10.529Z,22.50
2018-01-29T16:26:38.113Z,22.50
2018-01-29T16:29:05.654Z,22.50
2018-01-29T16:31:33.229Z,22.60
2018-01-29T16:34:00.789Z,22.60
2018-01-29T16:36:28.428Z,22.60
2018-01-29T16:38:56.048Z,22.60
2018-01-29T16:41:23.607Z,22.70
2018-01-29T16:43:51.195Z,22.70
2018-01-29T16:46:18.814Z,22.70
2018-01-29T16:48:47.139Z,22.80
2018-01-29T16:51:14.716Z,22.80
2018-01-29T16:53:42.324Z,22.80
2018-01-29T16:56:09.902Z,22.80
2018-01-29T16:58:37.517Z,22.90
2018-01-29T17:01:05.822Z,22.90
2018-01-29T17:03:33.412Z,22.90
2018-01-29T17:06:01.009Z,22.90
2018-01-29T17:08:28.563Z,22.90
2018-01-29T17:10:56.131Z,23.00
2018-01-29T17:13:24.489Z,23.20
2018-01-29T17:15:52.075Z,23.20
2018-01-29T17:18:19.638Z,23.10
2018-01-29T17:20:48.024Z,23.10
2018-01-29T17:23:16.337Z,23.00
2018-01-29T17:25:43.901Z,23.10
2018-01-29T17:28:11.499Z,23.10
2018-01-29T17:30:39.846Z,23.00
2018-01-29T17:33:07.451Z,22.90
2018-01-29T17:35:36.178Z,23.00
2018-01-29T17:38:03.753Z,22.90
2018-01-29T17:40:31.372Z,23.00
2018-01-29T17:42:59.688Z,23.00
2018-01-29T17:45:27.230Z,22.90
2018-01-29T17:47:54.861Z,22.90
2018-01-29T17:50:23.188Z,23.00
2018-01-29T17:52:50.742Z,23.00
2018-01-29T17:55:18.356Z,23.00
2018-01-29T17:57:46.664Z,22.90
2018-01-29T18:00:14.378Z,22.90
2018-01-29T18:02:41.974Z,22.90
2018-01-29T18:05:09.558Z,22.90
2018-01-29T18:07:37.221Z,22.90
2018-01-29T18:10:04.772Z,22.90
2018-01-29T18:12:32.974Z,22.90
2018-01-29T18:15:00.580Z,22.90
2018-01-29T18:17:29.192Z,23.00
2018-01-29T18:19:56.780Z,23.00
2018-01-29T18:22:24.354Z,23.00
2018-01-29T18:24:53.504Z,23.00
2018-01-29T18:27:21.220Z,23.00
2018-01-29T18:29:48.858Z,23.00
2018-01-29T18:32:16.542Z,23.10
2018-01-29T18:34:44.144Z,23.00
2018-01-29T18:37:11.760Z,23.00
2018-01-29T18:39:39.370Z,23.00
2018-01-29T18:42:07.676Z,23.00
2018-01-29T18:44:35.280Z,23.00
2018-01-29T18:47:03.632Z,22.90
2018-01-29T18:49:31.214Z,22.90
2018-01-29T18:51:59.732Z,22.90
2018-01-29T18:54:27.298Z,22.90
2018-01-29T18:56:54.914Z,22.90
2018-01-29T18:59:23.254Z,22.90
2018-01-29T19:01:50.815Z,22.90
2018-01-29T19:04:18.412Z,22.90
2018-01-29T19:06:46.810Z,22.90
2018-01-29T19:09:14.428Z,22.80
2018-01-29T19:11:41.994Z,22.80
2018-01-29T19:14:10.344Z,22.80
2018-01-29T19:16:38.190Z,22.80
2018-01-29T19:19:05.771Z,22.80
2018-01-29T19:21:33.360Z,22.80
2018-01-29T19:24:01.734Z,22.80
2018-01-29T19:26:29.308Z,22.80
2018-01-29T19:28:57.726Z,22.80
2018-01-29T19:31:25.364Z,22.80
2018-01-29T19:33:53.732Z,22.80
2018-01-29T19:36:22.115Z,22.80
2018-01-29T19:38:50.599Z,22.80
2018-01-29T19:41:18.953Z,22.80
2018-01-29T19:43:48.119Z,22.80
2018-01-29T19:46:15.734Z,22.80
2018-01-29T19:48:44.073Z,22.70
2018-01-29T19:51:11.704Z,22.70
2018-01-29T19:53:39.318Z,22.80
2018-01-29T19:56:07.690Z,22.80
2018-01-29T19:58:35.532Z,22.70
2018-01-29T20:01:03.138Z,22.70
2018-01-29T20:03:31.479Z,22.70
2018-01-29T20:05:59.114Z,22.70
2018-01-29T20:08:28.612Z,22.70
2018-01-29T20:10:56.207Z,22.70
2018-01-29T20:13:24.069Z,22.70
2018-01-29T20:15:51.852Z,22.70
2018-01-29T20:18:19.511Z,22.70
2018-01-29T20:20:47.163Z,22.70
2018-01-29T20:23:14.787Z,22.70
2018-01-29T20:25:42.380Z,22.80
2018-01-29T20:28:10.798Z,22.70
2018-01-29T20:30:39.165Z,22.70
2018-01-29T20:33:06.830Z,22.70
2018-01-29T20:35:35.263Z,22.70
2018-01-29T20:38:02.859Z,22.70
2018-01-29T20:40:30.515Z,22.70
2018-01-29T20:42:59.805Z,22.70
2018-01-29T20:45:27.385Z,22.70
2018-01-29T20:47:55.033Z,22.80
2018-01-29T20:50:22.755Z,22.70
2018-01-29T20:52:50.357Z,22.70
2018-01-29T20:55:17.977Z,22.70
2018-01-29T20:57:45.565Z,22.50
2018-01-29T21:00:13.365Z,22.40
2018-01-29T21:02:41.753Z,21.90
2018-01-29T21:05:11.047Z,21.80
2018-01-29T21:07:39.436Z,21.70
2018-01-29T21:10:08.567Z,21.70
2018-01-29T21:12:36.279Z,21.60
2018-01-29T21:15:03.869Z,21.60
2018-01-29T21:17:31.493Z,21.50
2018-01-29T21:19:59.075Z,21.50
2018-01-29T21:22:27.423Z,21.40
2018-01-29T21:24:55.183Z,21.40
2018-01-29T21:27:23.095Z,21.30
2018-01-29T21:29:50.695Z,21.30
2018-01-29T21:32:18.288Z,21.30
2018-01-29T21:34:45.899Z,21.30
2018-01-29T21:37:13.510Z,21.20
2018-01-29T21:39:41.043Z,21.20
2018-01-29T21:42:08.645Z,21.20
2018-01-29T21:44:37.147Z,21.10
2018-01-29T21:47:04.697Z,21.10
2018-01-29T21:49:32.275Z,21.20
2018-01-29T21:51:59.895Z,21.20
2018-01-29T21:54:28.231Z,21.20
2018-01-29T21:56:55.779Z,21.20
2018-01-29T21:59:23.390Z,21.20
2018-01-29T22:01:51.703Z,21.10
2018-01-29T22:04:19.246Z,21.10
2018-01-29T22:06:46.841Z,21.10
2018-01-29T22:09:14.413Z,21.10
2018-01-29T22:11:42.097Z,21.10
2018-01-29T22:14:09.745Z,21.00
2018-01-29T22:16:37.324Z,21.00
2018-01-29T22:19:04.858Z,21.00
2018-01-29T22:21:32.471Z,21.00
2018-01-29T22:24:00.042Z,20.90
2018-01-29T22:26:27.623Z,21.00
2018-01-29T22:28:55.213Z,20.90
2018-01-29T22:31:24.299Z,20.80
2018-01-29T22:33:51.901Z,20.80
2018-01-29T22:36:19.467Z,20.90
2018-01-29T22:38:47.037Z,20.90
2018-01-29T22:41:14.622Z,20.80
2018-01-29T22:43:42.237Z,20.80
2018-01-29T22:46:10.955Z,20.80
2018-01-29T22:48:38.548Z,20.80
2018-01-29T22:51:06.177Z,20.80
2018-01-29T22:53:33.821Z,20.80
2018-01-29T22:56:01.494Z,20.70
2018-01-29T22:58:29.254Z,20.80
2018-01-29T23:00:56.849Z,20.70
2018-01-29T23:03:24.385Z,20.70
2018-01-29T23:05:51.934Z,20.70
2018-01-29T23:08:19.510Z,20.70
2018-01-29T23:10:47.316Z,20.70
2018-01-29T23:13:14.891Z,20.70
2018-01-29T23:15:42.494Z,20.70
2018-01-29T23:18:10.038Z,20.70
2018-01-29T23:20:37.585Z,20.70
2018-01-29T23:23:05.348Z,20.70
2018-01-29T23:25:32.892Z,20.70
2018-01-29T23:28:01.236Z,20.70
2018-01-29T23:30:28.818Z,20.70
2018-01-29T23:32:57.218Z,20.80
2018-01-29T23:35:25.547Z,21.00
2018-01-29T23:37:53.165Z,20.90
2018-01-29T23:40:20.727Z,21.20
2018-01-29T23:42:53.078Z,21.50
2018-01-29T23:45:20.876Z,21.40
2018-01-29T23:47:48.424Z,21.50
2018-01-29T23:50:15.980Z,21.60
2018-01-29T23:52:43.703Z,21.70
2018-01-29T23:55:12.255Z,21.70
2018-01-29T23:57:39.842Z,21.70
